FW8846 Weather Reports


Display with metric or nautical units.
time (UTC)temp
F
wind
direction
speed
MPH
gust
MPH
rain 1hr
in
rain 24hr
in
rain mn
in
humidity
%
barometer
mb
20220629224747 92 178 3.0 3.0 0.00 0.00 0.00 34 979.2
20220629223748 92 142 3.0 3.0 0.00 0.00 0.00 35 979.2
20220629222751 93 154 3.0 5.0 0.00 0.00 0.00 34 979.3
20220629221754 95 192 2.0 3.0 0.00 0.00 0.00 31 979.4
20220629220752 94 0.0 0.0 0.00 0.00 0.00 31 979.8
20220629215755 92 154 4.0 5.0 0.00 0.00 0.00 33 979.6
20220629214756 95 58 5.0 7.0 0.00 0.00 0.00 31 979.9
20220629213758 94 152 2.0 2.0 0.00 0.00 0.00 31 980.0
20220629212801 95 114 2.0 3.0 0.00 0.00 0.00 29 980.1
20220629211804 92 160 3.0 4.0 0.00 0.00 0.00 32 980.2
20220629210759 92 160 3.0 4.0 0.00 0.00 0.00 34 980.3
20220629205753 93 166 2.0 3.0 0.00 0.00 0.00 31 980.6
20220629204750 0 113 5.0 5.0 0.00 0.00 0.00 980.6
20220629203745 92 173 3.0 4.0 0.00 0.00 0.00 32 980.6
20220629202747 91 203 5.0 6.0 0.00 0.00 0.00 33 980.6
20220629201749 93 137 4.0 7.0 0.00 0.00 0.00 31 980.9
20220629200751 91 135 3.0 4.0 0.00 0.00 0.00 32 981.1
20220629195753 92 119 5.0 7.0 0.00 0.00 0.00 34 981.1
20220629194755 91 164 4.0 5.0 0.00 0.00 0.00 33 981.2
20220629193756 92 115 4.0 6.0 0.00 0.00 0.00 33 981.3
20220629192758 92 95 4.0 5.0 0.00 0.00 0.00 32 981.4
20220629191800 91 167 3.0 4.0 0.00 0.00 0.00 32 981.4
20220629190802 92 220 3.0 4.0 0.00 0.00 0.00 31 981.6
20220629185746 92 356 3.0 5.0 0.00 0.00 0.00 33 981.7
20220629184748 91 191 3.0 4.0 0.00 0.00 0.00 35 981.9
20220629183750 91 100 3.0 3.0 0.00 0.00 0.00 32 982.0
20220629182751 90 191 2.0 4.0 0.00 0.00 0.00 35 982.1
20220629181747 89 203 4.0 5.0 0.00 0.00 0.00 35 982.2
20220629180755 89 160 4.0 5.0 0.00 0.00 0.00 36 982.3
20220629175757 90 181 3.0 5.0 0.00 0.00 0.00 37 982.3
20220629174759 90 314 3.0 4.0 0.00 0.00 0.00 37 982.4
20220629173801 90 304 3.0 4.0 0.00 0.00 0.00 37 982.5
20220629172802 88 127 4.0 6.0 0.00 0.00 0.00 38 982.6
20220629171746 89 193 3.0 4.0 0.00 0.00 0.00 40 982.6
20220629170748 87 225 2.0 4.0 0.00 0.00 0.00 39 982.8
20220629165751 89 279 3.0 5.0 0.00 0.00 0.00 37 983.1
20220629164754 88 216 1.0 3.0 0.00 0.00 0.00 40 983.1
20220629163756 86 193 2.0 4.0 0.00 0.00 0.00 40 983.1
20220629162756 85 193 3.0 4.0 0.00 0.00 0.00 42 983.1
20220629161756 85 124 4.0 5.0 0.00 0.00 0.00 42 983.1
20220629160752 85 205 3.0 4.0 0.00 0.00 0.00 42 983.1
20220629155800 84 201 3.0 4.0 0.00 0.00 0.00 42 982.9
20220629154745 83 117 3.0 4.0 0.00 0.00 0.00 45 982.9
20220629153747 82 198 3.0 4.0 0.00 0.00 0.00 46 983.0
20220629152749 83 231 4.0 5.0 0.00 0.00 0.00 45 983.1
20220629151751 83 192 2.0 3.0 0.00 0.00 0.00 46 983.1
20220629150753 83 16 1.0 3.0 0.00 0.00 0.00 46 983.2
20220629145753 86 134 3.0 5.0 0.00 0.00 0.00 42 983.2
20220629144756 87 213 2.0 3.0 0.00 0.00 0.00 43 983.1
20220629143752 86 232 2.0 3.0 0.00 0.00 0.00 42 983.1
20220629142748 84 9 2.0 3.0 0.00 0.00 0.00 48 983.1
20220629141751 83 82 2.0 3.0 0.00 0.00 0.00 48 983.1
20220629140752 83 138 3.0 4.0 0.00 0.00 0.00 49 983.1
20220629135753 80 173 3.0 3.0 0.00 0.00 0.00 54 982.9
20220629134756 78 147 3.0 4.0 0.00 0.00 0.00 57 982.7
20220629133751 78 158 3.0 3.0 0.00 0.00 0.00 60 982.7
20220629132747 75 150 3.0 4.0 0.00 0.00 0.00 64 982.6
20220629131801 73 145 3.0 4.0 0.00 0.00 0.00 67 982.6
20220629130802 72 141 3.0 5.0 0.00 0.00 0.00 70 982.4
20220629125745 70 136 3.0 4.0 0.00 0.00 0.00 75 982.4
20220629124747 68 135 4.0 4.0 0.00 0.00 0.00 78 982.3
20220629123749 66 119 3.0 3.0 0.00 0.00 0.00 82 982.3
20220629122803 63 119 3.0 4.0 0.00 0.00 0.00 87 982.2
20220629121758 60 0.0 0.0 0.00 0.00 0.00 91 982.1
20220629120802 60 0.0 0.0 0.00 0.00 0.00 91 982.1
20220629115803 59 0.0 0.0 0.00 0.00 0.00 91 982.1
20220629114747 59 0.0 0.0 0.00 0.00 0.00 91 981.9
20220629113748 59 0.0 0.0 0.00 0.00 0.00 91 981.9
20220629112749 58 0.0 0.0 0.00 0.00 0.00 93 981.9
20220629111752 58 0.0 0.0 0.00 0.00 0.00 93 981.9
20220629110747 58 0.0 0.0 0.00 0.00 0.00 94 981.9
20220629105755 58 0.0 0.0 0.00 0.00 0.00 94 981.8
20220629104757 58 0.0 0.0 0.00 0.00 0.00 94 981.6
20220629103759 58 0.0 0.0 0.00 0.00 0.00 94 981.6
20220629102801 58 0.0 0.0 0.00 0.00 0.00 94 981.6
20220629101803 58 0.0 0.0 0.00 0.00 0.00 94 981.6
20220629100746 58 0.0 0.0 0.00 0.00 0.00 94 981.4
20220629095800 58 0.0 0.0 0.00 0.00 0.00 94 981.3
20220629094803 58 0.0 0.0 0.00 0.00 0.00 93 981.4
20220629093746 58 0.0 0.0 0.00 0.00 0.00 93 981.4
20220629092755 58 0.0 0.0 0.00 0.00 0.00 93 981.3
20220629091750 58 0.0 0.0 0.00 0.00 0.00 93 981.4
20220629090752 58 0.0 0.0 0.00 0.00 0.00 93 981.3
20220629085754 58 0.0 0.0 0.00 0.00 0.00 92 981.3
20220629084749 58 0.0 0.0 0.00 0.00 0.00 92 981.1
20220629083747 59 0.0 0.0 0.00 0.00 0.00 92 981.1
20220629082759 59 0.0 0.0 0.00 0.00 0.00 91 981.2
20220629081759 59 0.0 0.0 0.00 0.00 0.00 90 981.2
20220629080802 59 0.0 0.0 0.00 0.00 0.00 89 981.2
20220629075803 59 0.0 0.0 0.00 0.00 0.00 89 981.2
20220629074746 59 0.0 0.0 0.00 0.00 0.00 89 981.3
20220629073750 59 0.0 0.0 0.00 0.00 0.00 89 981.2
20220629072750 60 0.0 0.0 0.00 0.00 0.00 89 981.1
20220629071752 60 0.0 0.0 0.00 0.00 0.00 88 981.1
20220629070754 60 0.0 0.0 0.00 0.00 0.00 87 981.2
20220629065756 61 0.0 0.0 0.00 0.00 0.00 87 981.2
20220629064756 61 0.0 0.0 0.00 0.00 0.00 87 981.2
20220629063752 62 0.0 0.0 0.00 0.00 0.00 86 981.2
20220629062748 62 0.0 0.0 0.00 0.00 0.00 86 981.2
20220629061802 62 123 2.0 3.0 0.00 0.00 0.00 86 981.2
20220629060745 62 0.0 0.0 0.00 0.00 0.00 85 981.2
20220629055748 63 0.0 0.0 0.00 0.00 0.00 84 981.2
20220629054749 63 0.0 0.0 0.00 0.00 0.00 83 981.3
20220629053751 63 0.0 0.0 0.00 0.00 0.00 83 981.3
20220629052753 64 113 1.0 3.0 0.00 0.00 0.00 82 981.3
20220629051756 64 0.0 0.0 0.00 0.00 0.00 82 981.4
20220629050759 64 0.0 0.0 0.00 0.00 0.00 82 981.6
20220629045759 64 0.0 0.0 0.00 0.00 0.00 82 981.6
20220629044801 64 0.0 0.0 0.00 0.00 0.00 82 981.3
20220629043803 64 0.0 0.0 0.00 0.00 0.00 82 981.2
20220629042746 65 0.0 0.0 0.00 0.00 0.00 81 981.1
20220629041748 65 0.0 0.0 0.00 0.00 0.00 81 980.9
20220629040750 65 0.0 0.0 0.00 0.00 0.00 81 980.9
20220629035746 65 0.0 0.0 0.00 0.00 0.00 80 980.8
20220629034754 66 0.0 0.0 0.00 0.00 0.00 80 980.7
20220629033756 66 0.0 0.0 0.00 0.00 0.00 80 980.7
20220629032757 67 0.0 0.0 0.00 0.00 0.00 79 980.7
20220629031759 67 0.0 0.0 0.00 0.00 0.00 77 980.6
20220629030802 68 0.0 0.0 0.00 0.00 0.00 75 980.3
20220629025745 68 0.0 0.0 0.00 0.00 0.00 74 980.1
20220629024747 69 0.0 0.0 0.00 0.00 0.00 73 979.9
20220629023749 70 0.0 0.0 0.00 0.00 0.00 72 979.9
20220629022751 71 0.0 0.0 0.00 0.00 0.00 68 979.9
20220629021752 72 0.0 0.0 0.00 0.00 0.00 66 979.8
20220629020754 73 0.0 0.0 0.00 0.00 0.00 64 979.8
20220629015756 74 0.0 0.0 0.00 0.00 0.00 62 979.8
20220629014752 76 0.0 0.0 0.00 0.00 0.00 57 979.7
20220629013748 78 0.0 0.0 0.00 0.00 0.00 58 979.7
20220629012802 79 0.0 0.0 0.00 0.00 0.00 56 979.6
20220629011746 80 146 2.0 3.0 0.00 0.00 0.00 55 979.7
20220629010747 83 0.0 0.0 0.00 0.00 0.00 55 979.7
20220629005749 85 0.0 0.0 0.00 0.00 0.00 52 979.7
20220629004751 88 0.0 0.0 0.00 0.00 0.00 46 979.7
20220629003753 92 0.0 0.0 0.00 0.00 0.00 40 979.7
20220629002755 93 0.0 0.0 0.00 0.00 0.00 37 979.8
20220629001757 94 0.0 0.0 0.00 0.00 0.00 37 979.8
20220629000759 95 0.0 0.0 0.00 0.00 0.00 36 979.8
20220628235800 95 0.0 0.0 0.00 0.00 0.00 33 979.9
20220628234802 95 135 2.0 2.0 0.00 0.00 0.00 32 980.1
20220628233746 93 180 2.0 3.0 0.00 0.00 0.00 35 980.1
20220628232748 94 324 3.0 4.0 0.00 0.00 0.00 34 980.1
20220628231750 95 274 3.0 4.0 0.00 0.00 0.00 33 980.2
20220628230746 93 248 0.0 2.0 0.00 0.00 0.00 35 980.3
20220628225753 91 329 4.0 5.0 0.00 0.00 0.00 37 980.6